createdAt,value
2023-03-24T00:01:05.267Z,96777.38
2023-03-24T00:03:34.199Z,96781.88
2023-03-24T00:06:03.946Z,96776.53
2023-03-24T00:08:36.523Z,96780.06
2023-03-24T00:11:06.611Z,96781.88
2023-03-24T00:13:38.476Z,96772.84
2023-03-24T00:16:08.301Z,96773.84
2023-03-24T00:18:37.221Z,96773.84
2023-03-24T00:21:05.980Z,96778.22
2023-03-24T00:23:34.278Z,96774.69
2023-03-24T00:26:03.737Z,96776.53
2023-03-24T00:28:33.307Z,96772.97
2023-03-24T00:31:03.344Z,96772.97
2023-03-24T00:33:32.908Z,96769.34
2023-03-24T00:36:01.595Z,96772.09
2023-03-24T00:38:30.113Z,96762.22
2023-03-24T00:40:58.974Z,96755.06
2023-03-24T00:43:27.287Z,96756.88
2023-03-24T00:46:01.403Z,96751.50
2023-03-24T00:48:31.040Z,96744.31
2023-03-24T00:50:59.301Z,96736.28
2023-03-24T00:53:29.651Z,96732.72
2023-03-24T00:55:58.420Z,96736.28
2023-03-24T00:58:26.783Z,96730.03
2023-03-24T01:00:56.687Z,96731.03
2023-03-24T01:03:30.109Z,96730.91
2023-03-24T01:06:04.521Z,96723.72
2023-03-24T01:08:33.243Z,96731.84
2023-03-24T01:11:01.613Z,96719.44
2023-03-24T01:13:30.618Z,96724.66
2023-03-24T01:15:58.851Z,96723.94
2023-03-24T01:18:27.792Z,96719.44
2023-03-24T01:20:55.982Z,96722.09
2023-03-24T01:23:26.911Z,96724.78
2023-03-24T01:25:55.228Z,96716.75
2023-03-24T01:28:26.023Z,96714.91
2023-03-24T01:30:54.336Z,96709.56
2023-03-24T01:33:24.116Z,96706.00
2023-03-24T01:35:52.670Z,96697.97
2023-03-24T01:38:20.944Z,96699.66
2023-03-24T01:40:50.511Z,96698.81
2023-03-24T01:43:22.664Z,96697.97
2023-03-24T01:45:58.482Z,96693.47
2023-03-24T01:48:29.481Z,96695.28
2023-03-24T01:51:01.396Z,96691.72
2023-03-24T01:53:29.959Z,96699.78
2023-03-24T01:55:59.639Z,96697.09
2023-03-24T01:58:32.810Z,96710.50
2023-03-24T02:01:17.682Z,96708.69
2023-03-24T02:03:49.214Z,96706.97
2023-03-24T02:06:27.885Z,96705.13
2023-03-24T02:09:01.479Z,96698.91
2023-03-24T02:11:32.737Z,96698.91
2023-03-24T02:14:04.788Z,96698.91
2023-03-24T02:17:04.136Z,96683.69
2023-03-24T02:20:13.558Z,96678.31
2023-03-24T02:23:21.097Z,96687.34
2023-03-24T02:26:27.289Z,96673.06
2023-03-24T02:29:03.671Z,96665.88
2023-03-24T02:31:52.331Z,96676.63
2023-03-24T02:34:50.060Z,96666.84
2023-03-24T02:37:43.183Z,96665.03
2023-03-24T02:40:36.620Z,96654.28
2023-03-24T02:43:17.670Z,96653.28
2023-03-24T02:45:50.510Z,96646.22
2023-03-24T02:48:22.694Z,96649.88
2023-03-24T02:50:53.085Z,96641.81
2023-03-24T02:53:23.872Z,96648.91
2023-03-24T02:56:24.458Z,96650.75
2023-03-24T02:58:58.905Z,96648.06
2023-03-24T03:01:31.817Z,96649.88
2023-03-24T03:04:12.328Z,96648.06
2023-03-24T03:06:41.540Z,96648.91
2023-03-24T03:09:11.532Z,96633.78
2023-03-24T03:11:44.872Z,96642.69
2023-03-24T03:14:14.511Z,96643.56
2023-03-24T03:16:45.467Z,96634.63
2023-03-24T03:19:18.162Z,96623.03
2023-03-24T03:21:47.681Z,96630.13
2023-03-24T03:24:16.977Z,96632.81
2023-03-24T03:26:47.528Z,96633.78
2023-03-24T03:29:17.115Z,96640.00
2023-03-24T03:31:50.993Z,96632.94
2023-03-24T03:34:22.153Z,96624.91
2023-03-24T03:36:52.138Z,96620.34
2023-03-24T03:39:22.245Z,96621.34
2023-03-24T03:41:51.983Z,96623.03
2023-03-24T03:44:20.403Z,96626.72
2023-03-24T03:46:48.809Z,96620.34
2023-03-24T03:49:23.566Z,96616.84
2023-03-24T03:51:51.832Z,96611.47
2023-03-24T03:54:20.133Z,96610.63
2023-03-24T03:56:49.726Z,96617.69
2023-03-24T03:59:34.120Z,96613.19
2023-03-24T04:02:09.066Z,96610.63
2023-03-24T04:05:20.905Z,96611.47
2023-03-24T04:08:08.417Z,96606.13
2023-03-24T04:11:17.010Z,96599.03
2023-03-24T04:14:31.194Z,96594.50
2023-03-24T04:17:34.899Z,96593.66
2023-03-24T04:20:10.669Z,96590.97
2023-03-24T04:22:46.703Z,96600.84
2023-03-24T04:25:22.812Z,96598.16
2023-03-24T04:27:57.103Z,96596.34
2023-03-24T04:30:27.283Z,96599.88
2023-03-24T04:32:59.283Z,96598.16
2023-03-24T04:35:32.779Z,96593.66
2023-03-24T04:38:23.159Z,96583.03
2023-03-24T04:40:58.816Z,96587.41
2023-03-24T04:43:28.383Z,96592.78
2023-03-24T04:45:58.044Z,96595.47
2023-03-24T04:48:44.255Z,96595.47
2023-03-24T04:51:21.129Z,96592.78
2023-03-24T04:54:21.664Z,96586.59
2023-03-24T04:56:54.540Z,96576.69
2023-03-24T04:59:29.946Z,96573.19
2023-03-24T05:01:58.988Z,96575.84
2023-03-24T05:04:29.811Z,96582.06
2023-03-24T05:07:03.906Z,96582.06
2023-03-24T05:09:32.913Z,96581.09
2023-03-24T05:12:02.237Z,96584.75
2023-03-24T05:14:35.084Z,96580.25
2023-03-24T05:17:05.474Z,96581.09
2023-03-24T05:19:34.945Z,96577.56
2023-03-24T05:22:03.048Z,96586.47
2023-03-24T05:24:32.055Z,96581.09
2023-03-24T05:27:00.324Z,96580.13
2023-03-24T05:29:28.607Z,96588.06
2023-03-24T05:31:57.888Z,96585.38
2023-03-24T05:34:27.321Z,96583.53
2023-03-24T05:37:12.206Z,96575.50
2023-03-24T05:39:40.706Z,96579.03
2023-03-24T05:42:29.171Z,96582.59
2023-03-24T05:44:58.949Z,96575.41
2023-03-24T05:47:28.689Z,96571.72
2023-03-24T05:49:57.043Z,96566.34
2023-03-24T05:52:28.888Z,96553.81
2023-03-24T05:55:09.554Z,96559.06
2023-03-24T05:57:37.905Z,96562.59
2023-03-24T06:00:24.675Z,96561.72
2023-03-24T06:02:59.247Z,96557.22
2023-03-24T06:05:33.196Z,96553.56
2023-03-24T06:08:04.037Z,96550.88
2023-03-24T06:10:36.973Z,96551.75
2023-03-24T06:13:08.676Z,96557.97
2023-03-24T06:15:39.596Z,96561.50
2023-03-24T06:18:32.067Z,96558.84
2023-03-24T06:21:05.239Z,96569.44
2023-03-24T06:23:35.909Z,96563.09
2023-03-24T06:26:10.148Z,96566.75
2023-03-24T06:28:44.095Z,96557.72
2023-03-24T06:31:19.894Z,96561.28
2023-03-24T06:33:48.269Z,96558.47
2023-03-24T06:36:16.700Z,96555.78
2023-03-24T06:38:46.808Z,96553.94
2023-03-24T06:41:18.936Z,96560.19
2023-03-24T06:43:49.946Z,96557.50
2023-03-24T06:46:18.336Z,96556.50
2023-03-24T06:48:49.267Z,96560.06
2023-03-24T06:51:17.707Z,96552.88
2023-03-24T06:53:48.219Z,96553.81
2023-03-24T06:56:18.404Z,96543.97
2023-03-24T06:58:52.501Z,96534.94
2023-03-24T07:01:30.082Z,96525.03
2023-03-24T07:04:26.072Z,96526.78
2023-03-24T07:07:38.109Z,96528.59
2023-03-24T07:10:28.530Z,96533.84
2023-03-24T07:12:57.575Z,96531.16
2023-03-24T07:15:25.805Z,96535.56
2023-03-24T07:17:55.618Z,96529.31
2023-03-24T07:20:42.735Z,96527.50
2023-03-24T07:23:18.946Z,96525.69
2023-03-24T07:25:55.452Z,96525.69
2023-03-24T07:28:37.965Z,96519.34
2023-03-24T07:31:06.910Z,96521.06
2023-03-24T07:33:35.490Z,96514.81
2023-03-24T07:36:04.076Z,96512.13
2023-03-24T07:38:32.474Z,96515.56
2023-03-24T07:41:06.813Z,96514.69
2023-03-24T07:43:37.937Z,96505.69
2023-03-24T07:46:18.501Z,96504.69
2023-03-24T07:48:47.323Z,96510.19
2023-03-24T07:51:19.922Z,96503.97
2023-03-24T07:53:48.270Z,96510.31
2023-03-24T07:56:27.335Z,96505.91
2023-03-24T07:58:58.513Z,96503.22
2023-03-24T08:01:33.078Z,96509.47
2023-03-24T08:04:04.802Z,96506.78
2023-03-24T08:07:08.936Z,96510.41
2023-03-24T08:09:37.118Z,96504.09
2023-03-24T08:12:17.489Z,96508.59
2023-03-24T08:14:48.387Z,96501.41
2023-03-24T08:17:16.434Z,96499.69
2023-03-24T08:19:58.262Z,96501.53
2023-03-24T08:22:28.556Z,96496.91
2023-03-24T08:24:56.705Z,96498.59
2023-03-24T08:27:26.207Z,96493.22
2023-03-24T08:29:54.788Z,96488.72
2023-03-24T08:32:23.011Z,96482.50
2023-03-24T08:34:51.185Z,96478.94
2023-03-24T08:37:19.367Z,96479.81
2023-03-24T08:39:47.616Z,96481.63
2023-03-24T08:42:15.843Z,96494.22
2023-03-24T08:44:46.209Z,96487.00
2023-03-24T08:47:14.341Z,96482.63
2023-03-24T08:49:42.400Z,96483.47
2023-03-24T08:52:10.507Z,96485.31
2023-03-24T08:54:38.660Z,96484.31
2023-03-24T08:57:07.575Z,96478.13
2023-03-24T08:59:35.811Z,96478.94
2023-03-24T09:02:05.291Z,96479.94
2023-03-24T09:04:33.803Z,96468.22
2023-03-24T09:07:03.064Z,96462.00
2023-03-24T09:09:31.448Z,96469.19
2023-03-24T09:11:59.566Z,96465.53
2023-03-24T09:14:27.745Z,96460.88
2023-03-24T09:16:56.255Z,96456.25
2023-03-24T09:19:25.726Z,96455.31
2023-03-24T09:21:53.827Z,96455.31
2023-03-24T09:24:21.960Z,96455.31
2023-03-24T09:26:50.043Z,96444.56
2023-03-24T09:29:18.764Z,96447.25
2023-03-24T09:31:47.144Z,96457.97
2023-03-24T09:34:15.686Z,96448.94
2023-03-24T09:36:45.173Z,96445.44
2023-03-24T09:39:13.307Z,96444.44
2023-03-24T09:41:41.513Z,96439.06
2023-03-24T09:44:12.865Z,96432.84
2023-03-24T09:46:43.980Z,96432.84
2023-03-24T09:49:12.597Z,96434.56
2023-03-24T09:51:42.066Z,96426.50
2023-03-24T09:54:14.019Z,96422.00
2023-03-24T09:56:43.639Z,96415.63
2023-03-24T09:59:15.191Z,96423.81
2023-03-24T10:01:43.348Z,96420.16
2023-03-24T10:04:15.712Z,96424.56
2023-03-24T10:06:44.078Z,96418.31
2023-03-24T10:09:23.579Z,96413.81
2023-03-24T10:11:56.724Z,96406.63
2023-03-24T10:14:29.212Z,96412.00
2023-03-24T10:16:59.280Z,96410.13
2023-03-24T10:19:33.893Z,96412.00
2023-03-24T10:22:04.421Z,96408.31
2023-03-24T10:24:38.313Z,96417.25
2023-03-24T10:27:08.332Z,96408.31
2023-03-24T10:29:36.723Z,96414.56
2023-03-24T10:32:10.810Z,96402.94
2023-03-24T10:34:38.968Z,96400.25
2023-03-24T10:37:07.470Z,96396.63
2023-03-24T10:39:44.200Z,96402.81
2023-03-24T10:42:15.967Z,96405.63
2023-03-24T10:44:44.146Z,96410.03
2023-03-24T10:47:12.636Z,96408.19
2023-03-24T10:49:40.886Z,96409.06
2023-03-24T10:52:10.983Z,96408.09
2023-03-24T10:54:40.892Z,96410.78
2023-03-24T10:57:16.559Z,96407.09
2023-03-24T10:59:51.847Z,96402.59
2023-03-24T11:02:21.504Z,96400.78
2023-03-24T11:04:51.995Z,96388.19
2023-03-24T11:07:21.207Z,96384.53
2023-03-24T11:09:59.234Z,96381.97
2023-03-24T11:12:28.340Z,96378.44
2023-03-24T11:15:17.528Z,96374.75
2023-03-24T11:17:49.637Z,96374.75
2023-03-24T11:20:19.248Z,96373.94
2023-03-24T11:23:01.314Z,96371.25
2023-03-24T11:25:33.799Z,96373.94
2023-03-24T11:28:03.468Z,96364.88
2023-03-24T11:30:34.778Z,96364.88
2023-03-24T11:33:04.007Z,96363.78
2023-03-24T11:35:41.372Z,96359.28
2023-03-24T11:38:10.193Z,96354.75
2023-03-24T11:40:39.742Z,96357.31
2023-03-24T11:43:12.994Z,96353.78
2023-03-24T11:45:41.856Z,96350.09
2023-03-24T11:48:15.609Z,96348.28
2023-03-24T11:50:43.851Z,96354.50
2023-03-24T11:53:13.335Z,96354.50
2023-03-24T11:55:47.150Z,96354.50
2023-03-24T11:58:19.691Z,96358.06
2023-03-24T12:00:49.484Z,96353.50
2023-03-24T12:03:44.747Z,96341.94
2023-03-24T12:06:19.245Z,96341.94
2023-03-24T12:08:52.894Z,96333.88
2023-03-24T12:11:24.649Z,96331.06
2023-03-24T12:13:52.874Z,96332.75
2023-03-24T12:16:39.230Z,96329.13
2023-03-24T12:19:40.284Z,96326.44
2023-03-24T12:22:14.699Z,96328.97
2023-03-24T12:24:54.572Z,96326.28
2023-03-24T12:27:27.587Z,96321.78
2023-03-24T12:30:01.857Z,96320.06
2023-03-24T12:32:38.090Z,96324.47
2023-03-24T12:35:39.831Z,96320.06
2023-03-24T12:38:27.128Z,96318.25
2023-03-24T12:41:39.450Z,96323.63
2023-03-24T12:44:33.884Z,96323.75
2023-03-24T12:47:06.523Z,96324.72
2023-03-24T12:49:47.144Z,96323.97
2023-03-24T12:52:32.265Z,96329.34
2023-03-24T12:55:05.189Z,96321.56
2023-03-24T12:57:35.838Z,96318.00
2023-03-24T13:00:11.077Z,96307.41
2023-03-24T13:02:40.450Z,96302.03
2023-03-24T13:05:10.369Z,96287.75
2023-03-24T13:07:39.362Z,96272.63
2023-03-24T13:10:09.434Z,96266.41
2023-03-24T13:12:39.456Z,96268.22
2023-03-24T13:15:16.389Z,96271.91
2023-03-24T13:17:46.974Z,96282.66
2023-03-24T13:20:16.336Z,96273.75
2023-03-24T13:22:44.464Z,96270.91
2023-03-24T13:25:19.287Z,96273.59
2023-03-24T13:27:47.475Z,96262.00
2023-03-24T13:30:35.377Z,96266.41
2023-03-24T13:33:06.115Z,96269.09
2023-03-24T13:35:51.494Z,96276.28
2023-03-24T13:38:22.087Z,96293.38
2023-03-24T13:40:52.361Z,96281.78
2023-03-24T13:43:21.697Z,96279.09
2023-03-24T13:45:52.157Z,96279.09
2023-03-24T13:48:27.724Z,96278.13
2023-03-24T13:50:58.155Z,96280.78
2023-03-24T13:53:32.724Z,96273.75
2023-03-24T13:56:01.814Z,96274.59
2023-03-24T13:58:47.073Z,96274.59
2023-03-24T14:01:34.025Z,96269.22
2023-03-24T14:04:23.649Z,96263.00
2023-03-24T14:06:52.029Z,96255.81
2023-03-24T14:09:22.446Z,96247.03
2023-03-24T14:11:52.028Z,96245.56
2023-03-24T14:14:22.347Z,96247.41
2023-03-24T14:17:04.144Z,96242.03
2023-03-24T14:19:33.587Z,96235.66
2023-03-24T14:22:15.062Z,96241.03
2023-03-24T14:24:44.612Z,96240.06
2023-03-24T14:27:35.971Z,96246.41
2023-03-24T14:30:07.561Z,96246.41
2023-03-24T14:32:40.680Z,96237.53
2023-03-24T14:35:24.163Z,96233.13
2023-03-24T14:37:54.290Z,96231.44
2023-03-24T14:40:32.199Z,96220.69
2023-03-24T14:43:20.381Z,96218.09
2023-03-24T14:46:01.594Z,96227.16
2023-03-24T14:48:43.131Z,96221.78
2023-03-24T14:51:25.258Z,96221.78
2023-03-24T14:53:53.629Z,96219.09
2023-03-24T14:56:21.825Z,96215.56
2023-03-24T14:58:51.839Z,96217.38
2023-03-24T15:01:20.419Z,96225.56
2023-03-24T15:03:55.233Z,96226.56
2023-03-24T15:06:24.189Z,96224.84
2023-03-24T15:08:53.591Z,96221.28
2023-03-24T15:11:23.143Z,96222.28
2023-03-24T15:13:52.139Z,96226.66
2023-03-24T15:16:25.026Z,96220.47
2023-03-24T15:19:01.350Z,96218.59
2023-03-24T15:21:33.804Z,96221.28
2023-03-24T15:24:02.172Z,96200.81
2023-03-24T15:26:30.646Z,96208.00
2023-03-24T15:28:59.545Z,96210.81
2023-03-24T15:31:30.527Z,96209.97
2023-03-24T15:34:25.122Z,96213.66
2023-03-24T15:36:54.931Z,96211.91
2023-03-24T15:39:26.774Z,96219.00
2023-03-24T15:41:55.161Z,96202.06
2023-03-24T15:44:26.240Z,96206.41
2023-03-24T15:46:56.681Z,96197.53
2023-03-24T15:49:27.987Z,96201.19
2023-03-24T15:51:58.373Z,96197.66
2023-03-24T15:54:27.047Z,96197.66
2023-03-24T15:57:03.085Z,96207.56
2023-03-24T15:59:35.984Z,96206.81
2023-03-24T16:02:05.660Z,96204.97
2023-03-24T16:04:35.741Z,96199.50
2023-03-24T16:07:04.876Z,96200.31
2023-03-24T16:09:39.026Z,96199.38
2023-03-24T16:12:11.425Z,96198.50
2023-03-24T16:14:40.098Z,96194.97
2023-03-24T16:17:08.369Z,96202.06
2023-03-24T16:19:37.955Z,96194.84
2023-03-24T16:22:10.492Z,96202.06
2023-03-24T16:24:38.592Z,96203.00
2023-03-24T16:27:06.820Z,96208.28
2023-03-24T16:29:38.222Z,96214.59
2023-03-24T16:32:07.208Z,96207.56
2023-03-24T16:34:36.746Z,96221.06
2023-03-24T16:37:06.394Z,96220.09
2023-03-24T16:39:34.463Z,96216.56
2023-03-24T16:42:02.662Z,96219.25
2023-03-24T16:44:31.081Z,96218.28
2023-03-24T16:46:59.337Z,96220.84
2023-03-24T16:49:27.553Z,96222.53
2023-03-24T16:51:55.936Z,96223.38
2023-03-24T16:54:25.444Z,96222.41
2023-03-24T16:56:53.609Z,96218.75
2023-03-24T16:59:21.916Z,96221.28
2023-03-24T17:01:50.055Z,96221.28
2023-03-24T17:04:19.397Z,96211.41
2023-03-24T17:06:49.349Z,96210.56
2023-03-24T17:09:17.648Z,96214.09
2023-03-24T17:11:48.745Z,96207.78
2023-03-24T17:14:17.067Z,96203.38
2023-03-24T17:16:45.924Z,96209.59
2023-03-24T17:19:15.459Z,96208.72
2023-03-24T17:21:46.028Z,96214.97
2023-03-24T17:24:14.350Z,96218.59
2023-03-24T17:26:42.802Z,96221.19
2023-03-24T17:29:12.565Z,96217.66
2023-03-24T17:31:43.116Z,96219.34
2023-03-24T17:34:21.588Z,96225.44
2023-03-24T17:36:51.369Z,96237.88
2023-03-24T17:39:20.025Z,96242.16
2023-03-24T17:41:48.287Z,96251.91
2023-03-24T17:44:17.868Z,96245.56
2023-03-24T17:46:46.116Z,96251.78
2023-03-24T17:49:14.347Z,96261.69
2023-03-24T17:51:42.469Z,96266.06
2023-03-24T17:54:11.900Z,96264.34
2023-03-24T17:56:40.263Z,96285.69
2023-03-24T17:59:08.439Z,96291.81
2023-03-24T18:01:39.537Z,96296.91
2023-03-24T18:04:07.946Z,96291.31
2023-03-24T18:06:36.076Z,96285.78
2023-03-24T18:09:04.405Z,96281.03
2023-03-24T18:11:32.635Z,96288.97
2023-03-24T18:14:00.867Z,96295.16
2023-03-24T18:16:30.898Z,96308.88
2023-03-24T18:19:01.550Z,96309.00
2023-03-24T18:21:29.768Z,96308.88
2023-03-24T18:23:57.859Z,96300.69
2023-03-24T18:26:26.624Z,96313.97
2023-03-24T18:28:54.714Z,96315.69
2023-03-24T18:31:25.891Z,96304.09
2023-03-24T18:33:54.163Z,96302.13
2023-03-24T18:36:26.602Z,96300.31
2023-03-24T18:38:57.450Z,96295.78
2023-03-24T18:41:26.956Z,96300.16
2023-03-24T18:43:55.279Z,96296.63
2023-03-24T18:46:23.570Z,96301.91
2023-03-24T18:48:53.205Z,96303.72
2023-03-24T18:51:21.548Z,96303.84
2023-03-24T18:53:51.075Z,96305.69
2023-03-24T18:56:19.325Z,96302.00
2023-03-24T18:58:49.231Z,96307.38
2023-03-24T19:01:22.531Z,96309.09
2023-03-24T19:03:51.317Z,96308.22
2023-03-24T19:06:19.600Z,96304.59
2023-03-24T19:08:50.528Z,96307.38
2023-03-24T19:11:20.138Z,96319.47
2023-03-24T19:13:50.609Z,96325.69
2023-03-24T19:16:19.028Z,96321.28
2023-03-24T19:18:48.548Z,96329.34
2023-03-24T19:21:16.984Z,96332.03
2023-03-24T19:23:46.786Z,96331.19
2023-03-24T19:26:16.278Z,96333.03
2023-03-24T19:28:47.276Z,96325.84
2023-03-24T19:31:17.701Z,96326.66
2023-03-24T19:33:45.987Z,96319.59
2023-03-24T19:36:15.397Z,96331.19
2023-03-24T19:38:44.247Z,96334.84
2023-03-24T19:41:13.479Z,96335.72
2023-03-24T19:43:41.615Z,96337.53
2023-03-24T19:46:11.244Z,96344.84
2023-03-24T19:48:39.487Z,96340.34
2023-03-24T19:51:07.643Z,96338.53
2023-03-24T19:53:35.862Z,96340.22
2023-03-24T19:56:04.220Z,96344.72
2023-03-24T19:58:32.428Z,96349.13
2023-03-24T20:01:00.601Z,96350.81
2023-03-24T20:03:30.166Z,96359.75
2023-03-24T20:05:58.708Z,96364.25
2023-03-24T20:08:26.931Z,96356.19
2023-03-24T20:10:55.435Z,96359.75
2023-03-24T20:13:25.870Z,96366.84
2023-03-24T20:15:54.201Z,96364.25
2023-03-24T20:18:22.443Z,96364.25
2023-03-24T20:20:52.093Z,96363.28
2023-03-24T20:23:20.245Z,96363.28
2023-03-24T20:25:48.779Z,96365.97
2023-03-24T20:28:17.752Z,96361.56
2023-03-24T20:30:46.203Z,96357.91
2023-03-24T20:33:14.347Z,96369.53
2023-03-24T20:35:42.757Z,96373.16
2023-03-24T20:38:12.261Z,96375.00
2023-03-24T20:40:40.415Z,96377.69
2023-03-24T20:43:08.516Z,96379.53
2023-03-24T20:45:37.122Z,96380.38
2023-03-24T20:48:05.349Z,96383.03
2023-03-24T20:50:33.699Z,96385.72
2023-03-24T20:53:01.885Z,96391.97
2023-03-24T20:55:31.668Z,96392.81
2023-03-24T20:58:01.339Z,96393.78
2023-03-24T21:00:29.852Z,96397.34
2023-03-24T21:02:58.133Z,96393.78
2023-03-24T21:05:26.374Z,96395.50
2023-03-24T21:07:54.515Z,96395.50
2023-03-24T21:10:22.601Z,96401.84
2023-03-24T21:12:53.624Z,96413.44
2023-03-24T21:15:24.966Z,96407.22
2023-03-24T21:17:53.448Z,96411.63
2023-03-24T21:20:21.746Z,96409.91
2023-03-24T21:22:55.255Z,96420.63
2023-03-24T21:25:24.072Z,96425.19
2023-03-24T21:27:53.639Z,96427.88
2023-03-24T21:30:21.999Z,96433.22
2023-03-24T21:32:50.974Z,96429.69
2023-03-24T21:35:19.779Z,96432.38
2023-03-24T21:37:48.197Z,96444.06
2023-03-24T21:40:18.515Z,96449.44
2023-03-24T21:42:49.685Z,96452.13
2023-03-24T21:45:20.410Z,96457.63
2023-03-24T21:47:49.311Z,96451.38
2023-03-24T21:50:23.053Z,96461.28
2023-03-24T21:52:51.735Z,96472.88
2023-03-24T21:55:20.514Z,96477.41
2023-03-24T21:57:49.326Z,96476.53
2023-03-24T22:00:21.124Z,96483.75
2023-03-24T22:02:50.756Z,96495.34
2023-03-24T22:05:20.118Z,96504.34
2023-03-24T22:07:48.491Z,96513.28
2023-03-24T22:10:23.061Z,96521.44
2023-03-24T22:12:51.528Z,96533.06
2023-03-24T22:15:21.081Z,96540.25
2023-03-24T22:17:49.529Z,96543.78
2023-03-24T22:20:17.928Z,96554.63
2023-03-24T22:22:46.216Z,96560.00
2023-03-24T22:25:15.487Z,96562.69
2023-03-24T22:27:43.617Z,96568.06
2023-03-24T22:30:13.284Z,96564.53
2023-03-24T22:32:42.985Z,96570.72
2023-03-24T22:35:11.357Z,96575.28
2023-03-24T22:37:39.600Z,96577.97
2023-03-24T22:40:09.306Z,96577.09
2023-03-24T22:42:37.472Z,96572.69
2023-03-24T22:45:06.402Z,96581.59
2023-03-24T22:47:34.858Z,96577.22
2023-03-24T22:50:04.447Z,96584.41
2023-03-24T22:52:32.612Z,96586.09
2023-03-24T22:55:01.142Z,96583.53
2023-03-24T22:57:29.335Z,96578.19
2023-03-24T23:00:01.796Z,96581.00
2023-03-24T23:02:30.852Z,96585.38
2023-03-24T23:04:59.211Z,96588.06
2023-03-24T23:07:29.659Z,96576.47
2023-03-24T23:09:59.474Z,96574.63
2023-03-24T23:12:28.014Z,96583.66
2023-03-24T23:14:56.279Z,96589.03
2023-03-24T23:17:25.260Z,96577.31
2023-03-24T23:19:53.510Z,96580.13
2023-03-24T23:22:22.374Z,96588.19
2023-03-24T23:25:00.557Z,96585.50
2023-03-24T23:27:34.733Z,96574.75
2023-03-24T23:30:03.012Z,96578.31
2023-03-24T23:32:33.420Z,96584.63
2023-03-24T23:35:02.950Z,96577.44
2023-03-24T23:37:32.144Z,96568.53
2023-03-24T23:40:08.277Z,96558.78
2023-03-24T23:42:36.664Z,96548.03
2023-03-24T23:45:05.017Z,96536.44
2023-03-24T23:47:33.620Z,96532.06
2023-03-24T23:50:01.843Z,96532.06
2023-03-24T23:52:29.982Z,96524.00
2023-03-24T23:54:58.586Z,96529.38
2023-03-24T23:57:28.128Z,96522.16
2023-03-24T23:59:56.296Z,96519.59
